createdAt,value
2019-06-26T00:03:47.194Z,9.28
2019-06-26T00:08:51.470Z,9.48
2019-06-26T00:13:55.761Z,9.13
2019-06-26T00:19:00.053Z,9.18
2019-06-26T00:24:04.363Z,9.43
2019-06-26T00:29:08.656Z,8.95
2019-06-26T00:34:12.983Z,8.90
2019-06-26T00:39:17.238Z,9.78
2019-06-26T00:44:21.627Z,9.40
2019-06-26T00:49:25.844Z,9.65
2019-06-26T00:54:30.128Z,10.28
2019-06-26T00:59:34.432Z,8.93
2019-06-26T01:04:53.487Z,9.70
2019-06-26T01:09:57.782Z,10.23
2019-06-26T01:15:02.121Z,9.88
2019-06-26T01:20:08.610Z,9.48
2019-06-26T01:25:14.075Z,9.80
2019-06-26T01:30:18.793Z,9.88
2019-06-26T01:35:23.094Z,9.80
2019-06-26T01:40:27.403Z,10.32
2019-06-26T01:45:31.801Z,10.18
2019-06-26T01:50:36.044Z,10.48
2019-06-26T01:55:40.367Z,10.48
2019-06-26T02:00:44.697Z,11.12
2019-06-26T02:05:49.077Z,9.78
2019-06-26T02:10:53.412Z,11.15
2019-06-26T02:15:57.729Z,10.93
2019-06-26T02:21:02.032Z,10.80
2019-06-26T02:26:06.405Z,10.70
2019-06-26T02:31:10.751Z,11.20
2019-06-26T02:36:15.036Z,10.50
2019-06-26T02:41:19.386Z,11.18
2019-06-26T02:46:23.709Z,11.45
2019-06-26T02:51:28.010Z,11.50
2019-06-26T02:56:32.346Z,11.40
2019-06-26T03:01:36.666Z,11.40
2019-06-26T03:06:40.996Z,11.50
2019-06-26T03:11:45.326Z,11.38
2019-06-26T03:16:49.622Z,12.28
2019-06-26T03:21:53.920Z,11.38
2019-06-26T03:26:58.229Z,11.60
2019-06-26T03:32:02.551Z,11.53
2019-06-26T03:37:06.860Z,11.00
2019-06-26T03:42:11.875Z,11.14
2019-06-26T03:47:16.195Z,11.30
2019-06-26T03:52:20.490Z,12.20
2019-06-26T03:57:24.775Z,12.00
2019-06-26T04:02:29.065Z,11.83
2019-06-26T04:07:33.372Z,12.03
2019-06-26T04:12:37.651Z,12.63
2019-06-26T04:17:41.968Z,12.00
2019-06-26T04:22:47.635Z,11.35
2019-06-26T04:27:52.216Z,12.30
2019-06-26T04:32:56.518Z,11.35
2019-06-26T04:38:00.830Z,12.00
2019-06-26T04:43:05.225Z,11.33
2019-06-26T04:48:09.572Z,11.75
2019-06-26T04:53:13.853Z,12.35
2019-06-26T04:58:18.133Z,11.48
2019-06-26T05:03:22.417Z,11.60
2019-06-26T05:08:26.711Z,11.50
2019-06-26T05:13:31.025Z,11.50
2019-06-26T05:18:35.290Z,11.60
2019-06-26T05:23:39.583Z,11.38
2019-06-26T05:28:43.901Z,11.75
2019-06-26T05:33:48.268Z,11.08
2019-06-26T05:38:52.515Z,12.63
2019-06-26T05:43:56.832Z,11.53
2019-06-26T05:49:01.205Z,11.30
2019-06-26T05:54:05.543Z,11.68
2019-06-26T05:59:09.807Z,11.20
2019-06-26T06:04:14.112Z,11.45
2019-06-26T06:09:18.436Z,11.05
2019-06-26T06:14:22.757Z,10.30
2019-06-26T06:19:28.193Z,11.00
2019-06-26T06:24:32.573Z,10.38
2019-06-26T06:29:36.885Z,10.30
2019-06-26T06:34:41.295Z,10.95
2019-06-26T06:39:45.588Z,9.50
2019-06-26T06:44:49.872Z,9.50
2019-06-26T06:49:54.162Z,9.93
2019-06-26T06:54:58.600Z,10.63
2019-06-26T07:00:02.952Z,10.57
2019-06-26T07:05:08.993Z,10.03
2019-06-26T07:10:13.291Z,9.38
2019-06-26T07:15:17.954Z,9.88
2019-06-26T07:20:22.362Z,9.53
2019-06-26T07:25:26.638Z,9.35
2019-06-26T07:30:30.955Z,9.08
2019-06-26T07:35:35.291Z,9.20
2019-06-26T07:40:39.596Z,8.50
2019-06-26T07:45:43.903Z,7.85
2019-06-26T07:50:49.555Z,6.87
2019-06-26T07:55:53.823Z,6.40
2019-06-26T08:00:58.127Z,6.28
2019-06-26T08:06:02.409Z,5.53
2019-06-26T08:11:06.778Z,4.92
2019-06-26T08:16:11.159Z,5.30
2019-06-26T08:21:15.432Z,4.83
2019-06-26T08:26:20.739Z,5.00
2019-06-26T08:31:24.997Z,4.90
2019-06-26T08:36:29.346Z,5.08
2019-06-26T08:41:33.627Z,6.05
2019-06-26T08:46:37.897Z,5.30
2019-06-26T08:51:42.167Z,5.42
2019-06-26T08:56:46.453Z,6.05
2019-06-26T09:01:50.825Z,5.37
2019-06-26T09:06:55.143Z,5.70
2019-06-26T09:11:59.447Z,5.22
2019-06-26T09:17:03.787Z,5.53
2019-06-26T09:22:09.389Z,5.60
2019-06-26T09:27:15.047Z,5.60
2019-06-26T09:32:19.584Z,5.80
2019-06-26T09:37:23.905Z,5.50
2019-06-26T09:42:28.207Z,5.30
2019-06-26T09:47:32.499Z,5.42
2019-06-26T09:52:36.781Z,5.00
2019-06-26T09:57:41.078Z,4.80
2019-06-26T10:02:45.350Z,4.17
2019-06-26T10:07:49.624Z,4.20
2019-06-26T10:12:53.931Z,4.35
2019-06-26T10:17:58.256Z,4.70
2019-06-26T10:23:02.543Z,4.62
2019-06-26T10:28:06.822Z,4.45
2019-06-26T10:33:11.131Z,4.50
2019-06-26T10:38:15.401Z,4.83
2019-06-26T10:43:19.681Z,4.65
2019-06-26T10:48:23.978Z,5.22
2019-06-26T10:53:28.369Z,4.70
2019-06-26T10:58:32.636Z,4.60
2019-06-26T11:03:36.931Z,4.40
2019-06-26T11:08:41.242Z,5.08
2019-06-26T11:13:45.546Z,4.80
2019-06-26T11:18:49.850Z,4.92
2019-06-26T11:23:54.123Z,4.80
2019-06-26T11:28:58.398Z,4.50
2019-06-26T11:34:03.520Z,4.53
2019-06-26T11:39:08.220Z,5.08
2019-06-26T11:44:12.429Z,4.67
2019-06-26T11:49:16.744Z,4.85
2019-06-26T11:54:21.031Z,5.37
2019-06-26T11:59:25.440Z,5.12
2019-06-26T12:04:29.770Z,5.20
2019-06-26T12:09:34.043Z,5.45
2019-06-26T12:14:38.371Z,4.92
2019-06-26T12:19:42.653Z,4.95
2019-06-26T12:24:46.920Z,5.12
2019-06-26T12:29:51.225Z,4.90
2019-06-26T12:34:55.646Z,5.00
2019-06-26T12:40:00.574Z,4.95
2019-06-26T12:45:09.299Z,5.08
2019-06-26T12:50:15.284Z,4.72
2019-06-26T12:55:19.665Z,5.25
2019-06-26T13:00:23.964Z,5.45
2019-06-26T13:05:28.228Z,5.70
2019-06-26T13:10:48.514Z,5.22
2019-06-26T13:15:38.559Z,5.22
2019-06-26T13:20:53.018Z,4.87
2019-06-26T13:25:49.004Z,5.30
2019-06-26T13:30:55.960Z,4.83
2019-06-26T13:36:00.241Z,4.87
2019-06-26T13:41:04.535Z,4.40
2019-06-26T13:46:08.880Z,5.10
2019-06-26T13:51:13.307Z,4.45
2019-06-26T13:56:17.574Z,4.30
2019-06-26T14:01:23.157Z,4.87
2019-06-26T14:06:27.677Z,4.65
2019-06-26T14:11:31.977Z,4.65
2019-06-26T14:16:36.290Z,4.25
2019-06-26T14:21:40.549Z,4.83
2019-06-26T14:26:44.912Z,4.53
2019-06-26T14:31:49.296Z,5.00
2019-06-26T14:36:53.655Z,5.37
2019-06-26T14:41:57.928Z,5.37
2019-06-26T14:47:02.240Z,4.58
2019-06-26T14:52:06.594Z,4.95
2019-06-26T14:57:10.941Z,5.17
2019-06-26T15:02:15.242Z,4.85
2019-06-26T15:07:19.515Z,4.97
2019-06-26T15:12:23.837Z,5.08
2019-06-26T15:17:28.122Z,5.57
2019-06-26T15:22:32.439Z,5.30
2019-06-26T15:27:36.831Z,5.12
2019-06-26T15:32:41.211Z,5.50
2019-06-26T15:37:45.481Z,5.25
2019-06-26T15:42:49.836Z,5.20
2019-06-26T15:47:54.153Z,5.28
2019-06-26T15:52:59.519Z,5.08
2019-06-26T15:58:03.817Z,5.87
2019-06-26T16:03:08.114Z,6.30
2019-06-26T16:08:12.384Z,5.62
2019-06-26T16:13:16.774Z,5.47
2019-06-26T16:18:31.743Z,5.72
2019-06-26T16:23:36.041Z,5.58
2019-06-26T16:28:41.335Z,5.72
2019-06-26T16:33:45.710Z,6.12
2019-06-26T16:38:51.631Z,6.33
2019-06-26T16:43:56.272Z,6.55
2019-06-26T16:49:00.584Z,5.97
2019-06-26T16:54:05.840Z,6.62
2019-06-26T16:59:10.138Z,6.55
2019-06-26T17:04:14.404Z,6.40
2019-06-26T17:09:18.715Z,6.65
2019-06-26T17:14:23.025Z,6.03
2019-06-26T17:19:27.345Z,6.20
2019-06-26T17:24:31.807Z,6.50
2019-06-26T17:29:36.752Z,6.58
2019-06-26T17:34:41.142Z,6.70
2019-06-26T17:39:46.364Z,6.50
2019-06-26T17:44:50.697Z,6.10
2019-06-26T17:49:55.980Z,6.33
2019-06-26T17:55:00.251Z,6.80
2019-06-26T18:00:06.906Z,7.03
2019-06-26T18:05:11.807Z,7.15
2019-06-26T18:10:16.036Z,6.72
2019-06-26T18:15:20.328Z,7.35
2019-06-26T18:20:24.657Z,7.00
2019-06-26T18:25:29.040Z,7.67
2019-06-26T18:30:33.648Z,7.60
2019-06-26T18:35:38.052Z,7.55
2019-06-26T18:40:42.476Z,7.17
2019-06-26T18:45:46.741Z,7.50
2019-06-26T18:50:51.025Z,7.47
2019-06-26T18:55:55.682Z,6.75
2019-06-26T19:00:59.942Z,7.12
2019-06-26T19:06:04.302Z,7.03
2019-06-26T19:11:08.619Z,6.90
2019-06-26T19:16:12.899Z,6.87
2019-06-26T19:21:17.226Z,7.15
2019-06-26T19:26:23.959Z,7.37
2019-06-26T19:31:28.362Z,7.05
2019-06-26T19:36:45.874Z,7.28
2019-06-26T19:41:39.002Z,8.93
2019-06-26T19:46:43.490Z,6.97
2019-06-26T19:51:47.786Z,6.33
2019-06-26T19:56:52.104Z,7.53
2019-06-26T20:01:56.377Z,6.83
2019-06-26T20:07:00.705Z,7.62
2019-06-26T20:12:05.007Z,7.78
2019-06-26T20:17:09.285Z,7.28
2019-06-26T20:22:13.572Z,7.37
2019-06-26T20:27:17.869Z,8.43
2019-06-26T20:32:22.163Z,7.93
2019-06-26T20:37:26.821Z,8.00
2019-06-26T20:42:31.077Z,7.37
2019-06-26T20:47:35.362Z,7.50
2019-06-26T20:52:39.636Z,7.45
2019-06-26T20:57:43.919Z,7.30
2019-06-26T21:02:48.184Z,7.12
2019-06-26T21:07:55.169Z,7.50
2019-06-26T21:12:59.404Z,7.53
2019-06-26T21:18:03.761Z,6.47
2019-06-26T21:23:18.026Z,6.92
2019-06-26T21:28:14.180Z,6.97
2019-06-26T21:33:18.454Z,6.45
2019-06-26T21:38:22.761Z,7.17
2019-06-26T21:43:27.037Z,6.67
2019-06-26T21:48:31.372Z,7.12
2019-06-26T21:53:35.677Z,6.90
2019-06-26T21:58:57.706Z,6.65
2019-06-26T22:04:19.837Z,6.85
2019-06-26T22:09:25.757Z,6.45
2019-06-26T22:14:30.175Z,7.10
2019-06-26T22:19:34.509Z,6.40
2019-06-26T22:24:38.784Z,8.18
2019-06-26T22:29:44.056Z,7.20
2019-06-26T22:34:48.352Z,6.90
2019-06-26T22:39:52.646Z,6.20
2019-06-26T22:44:56.920Z,6.30
2019-06-26T22:50:01.219Z,6.37
2019-06-26T22:55:08.632Z,6.50
2019-06-26T23:00:15.359Z,6.10
2019-06-26T23:05:19.610Z,5.83
2019-06-26T23:10:23.897Z,5.70
2019-06-26T23:15:28.200Z,5.10
2019-06-26T23:20:32.508Z,5.37
2019-06-26T23:25:36.835Z,5.50
2019-06-26T23:30:41.128Z,5.00
2019-06-26T23:35:45.412Z,5.22
2019-06-26T23:40:49.680Z,5.17
2019-06-26T23:45:53.954Z,4.92
2019-06-26T23:50:58.292Z,5.37
2019-06-26T23:56:02.590Z,5.22
